createdAt,value
2023-03-15T00:01:33.312Z,99994.06
2023-03-15T00:06:34.513Z,100002.72
2023-03-15T00:11:35.679Z,99993.66
2023-03-15T00:16:36.905Z,99997.34
2023-03-15T00:21:39.720Z,100005.66
2023-03-15T00:26:41.182Z,100003.59
2023-03-15T00:31:42.404Z,100006.97
2023-03-15T00:36:43.791Z,100013.78
2023-03-15T00:41:45.918Z,100011.47
2023-03-15T00:46:47.220Z,100024.75
2023-03-15T00:51:48.402Z,100020.41
2023-03-15T00:56:49.565Z,100015.25
2023-03-15T01:01:51.146Z,100024.34
2023-03-15T01:06:52.389Z,100024.09
2023-03-15T01:11:53.621Z,100024.88
2023-03-15T01:16:54.840Z,100026.22
2023-03-15T01:21:56.018Z,100045.38
2023-03-15T01:26:57.186Z,100038.09
2023-03-15T01:31:58.357Z,100038.84
2023-03-15T01:36:59.616Z,100037.19
2023-03-15T01:42:00.829Z,100043.38
2023-03-15T01:47:02.077Z,100048.31
2023-03-15T01:52:03.397Z,100057.97
2023-03-15T01:57:04.610Z,100052.53
2023-03-15T02:02:05.764Z,100055.44
2023-03-15T02:07:07.010Z,100057.78
2023-03-15T02:12:08.158Z,100061.38
2023-03-15T02:17:09.373Z,100064.13
2023-03-15T02:22:12.047Z,100062.78
2023-03-15T02:27:13.279Z,100069.41
2023-03-15T02:32:14.464Z,100058.88
2023-03-15T02:37:15.682Z,100068.53
2023-03-15T02:42:16.850Z,100064.09
2023-03-15T02:47:18.875Z,100065.00
2023-03-15T02:52:20.167Z,100072.44
2023-03-15T02:57:21.386Z,100073.56
2023-03-15T03:02:23.761Z,100080.00
2023-03-15T03:07:24.979Z,100080.38
2023-03-15T03:12:26.127Z,100087.78
2023-03-15T03:17:27.377Z,100097.13
2023-03-15T03:22:28.629Z,100102.47
2023-03-15T03:27:29.782Z,100111.81
2023-03-15T03:32:31.840Z,100111.56
2023-03-15T03:37:33.080Z,100125.84
2023-03-15T03:42:34.233Z,100125.94
2023-03-15T03:47:35.466Z,100130.34
2023-03-15T03:52:36.599Z,100136.59
2023-03-15T03:57:37.849Z,100138.50
2023-03-15T04:02:39.040Z,100150.41
2023-03-15T04:07:40.296Z,100150.81
2023-03-15T04:12:41.517Z,100157.25
2023-03-15T04:17:42.745Z,100158.97
2023-03-15T04:22:49.444Z,100153.00
2023-03-15T04:27:58.635Z,100165.16
2023-03-15T04:33:00.166Z,100170.97
2023-03-15T04:38:01.429Z,100177.41
2023-03-15T04:43:03.257Z,100184.63
2023-03-15T04:48:04.466Z,100187.75
2023-03-15T04:53:05.916Z,100188.34
2023-03-15T04:58:07.064Z,100201.97
2023-03-15T05:03:08.214Z,100203.06
2023-03-15T05:08:09.437Z,100207.56
2023-03-15T05:13:10.638Z,100209.50
2023-03-15T05:18:11.849Z,100222.44
2023-03-15T05:23:13.707Z,100216.25
2023-03-15T05:28:18.125Z,100225.34
2023-03-15T05:33:19.354Z,100231.78
2023-03-15T05:38:26.387Z,100247.41
2023-03-15T05:43:27.605Z,100254.94
2023-03-15T05:48:28.793Z,100273.38
2023-03-15T05:53:29.958Z,100284.28
2023-03-15T05:58:31.238Z,100285.84
2023-03-15T06:03:32.458Z,100290.81
2023-03-15T06:08:33.713Z,100304.94
2023-03-15T06:13:34.888Z,100310.22
2023-03-15T06:18:36.080Z,100316.75
2023-03-15T06:23:37.273Z,100321.31
2023-03-15T06:28:38.753Z,100327.94
2023-03-15T06:33:39.926Z,100334.66
2023-03-15T06:38:41.739Z,100326.91
2023-03-15T06:43:42.901Z,100336.78
2023-03-15T06:48:44.112Z,100338.78
2023-03-15T06:53:45.270Z,100349.31
2023-03-15T06:58:46.442Z,100366.16
2023-03-15T07:03:47.579Z,100374.59
2023-03-15T07:08:48.725Z,100381.91
2023-03-15T07:13:50.356Z,100392.97
2023-03-15T07:18:53.547Z,100398.38
2023-03-15T07:23:54.812Z,100413.16
2023-03-15T07:28:56.043Z,100420.56
2023-03-15T07:33:57.316Z,100426.75
2023-03-15T07:38:58.463Z,100440.50
2023-03-15T07:43:59.663Z,100446.13
2023-03-15T07:49:00.894Z,100460.28
2023-03-15T07:54:02.058Z,100469.72
2023-03-15T07:59:03.209Z,100479.72
2023-03-15T08:04:04.420Z,100492.25
2023-03-15T08:09:06.625Z,100488.88
2023-03-15T08:14:07.800Z,100497.13
2023-03-15T08:19:09.200Z,100510.03
2023-03-15T08:24:10.371Z,100522.19
2023-03-15T08:29:11.557Z,100520.56
2023-03-15T08:34:12.787Z,100529.94
2023-03-15T08:39:14.043Z,100540.09
2023-03-15T08:44:15.269Z,100546.59
2023-03-15T08:49:16.445Z,100546.44
2023-03-15T08:54:17.679Z,100560.44
2023-03-15T08:59:25.549Z,100568.13
2023-03-15T09:04:32.058Z,100575.09
2023-03-15T09:09:33.662Z,100576.53
2023-03-15T09:14:34.900Z,100577.78
2023-03-15T09:19:36.067Z,100575.88
2023-03-15T09:24:37.243Z,100590.38
2023-03-15T09:29:38.444Z,100589.88
2023-03-15T09:34:42.210Z,100587.41
2023-03-15T09:39:43.619Z,100589.19
2023-03-15T09:44:45.267Z,100598.63
2023-03-15T09:49:46.468Z,100605.47
2023-03-15T09:54:47.613Z,100620.44
2023-03-15T09:59:48.774Z,100619.28
2023-03-15T10:04:49.958Z,100597.66
2023-03-15T10:09:51.139Z,100591.97
2023-03-15T10:14:52.362Z,100590.94
2023-03-15T10:19:53.553Z,100590.75
2023-03-15T10:24:54.795Z,100594.69
2023-03-15T10:29:55.985Z,100610.13
2023-03-15T10:34:57.169Z,100604.53
2023-03-15T10:39:58.512Z,100571.47
2023-03-15T10:45:00.700Z,100624.63
2023-03-15T10:50:01.910Z,100596.75
2023-03-15T10:55:04.732Z,100610.22
2023-03-15T11:00:10.190Z,100618.53
2023-03-15T11:05:12.372Z,100613.88
2023-03-15T11:10:13.606Z,100633.19
2023-03-15T11:15:14.765Z,100616.84
2023-03-15T11:20:16.433Z,100618.19
2023-03-15T11:25:17.963Z,100631.84
2023-03-15T11:30:19.126Z,100638.31
2023-03-15T11:35:20.389Z,100651.19
2023-03-15T11:40:24.377Z,100654.09
2023-03-15T11:45:25.566Z,100653.91
2023-03-15T11:50:26.895Z,100664.94
2023-03-15T11:55:28.120Z,100665.66
2023-03-15T12:00:29.269Z,100660.19
2023-03-15T12:05:30.633Z,100660.16
2023-03-15T12:10:32.033Z,100665.13
2023-03-15T12:15:33.260Z,100659.25
2023-03-15T12:20:34.454Z,100666.91
2023-03-15T12:25:45.478Z,100667.47
2023-03-15T12:30:53.966Z,100660.19
2023-03-15T12:35:55.205Z,100654.84
2023-03-15T12:40:56.387Z,100612.22
2023-03-15T12:45:58.095Z,100647.09
2023-03-15T12:50:59.337Z,100645.44
2023-03-15T12:56:08.576Z,100642.00
2023-03-15T13:01:10.132Z,100636.72
2023-03-15T13:06:11.365Z,100647.63
2023-03-15T13:11:12.590Z,100650.41
2023-03-15T13:16:15.393Z,100643.66
2023-03-15T13:21:16.777Z,100642.72
2023-03-15T13:26:17.960Z,100645.97
2023-03-15T13:31:19.199Z,100645.81
2023-03-15T13:36:23.351Z,100644.84
2023-03-15T13:41:24.598Z,100648.25
2023-03-15T13:46:26.626Z,100653.31
2023-03-15T13:51:27.876Z,100647.50
2023-03-15T13:56:32.678Z,100649.22
2023-03-15T14:01:38.566Z,100650.41
2023-03-15T14:06:39.704Z,100648.25
2023-03-15T14:11:40.982Z,100652.34
2023-03-15T14:16:57.313Z,100654.47
2023-03-15T14:22:02.570Z,100657.00
2023-03-15T14:27:03.705Z,100649.50
2023-03-15T14:32:04.918Z,100655.56
2023-03-15T14:37:06.597Z,100657.34
2023-03-15T14:42:07.765Z,100666.69
2023-03-15T14:47:08.993Z,100670.38
2023-03-15T14:52:10.180Z,100673.63
2023-03-15T14:57:11.469Z,100677.00
2023-03-15T15:02:12.667Z,100684.00
2023-03-15T15:07:13.910Z,100683.81
2023-03-15T15:12:15.101Z,100692.28
2023-03-15T15:17:16.374Z,100705.47
2023-03-15T15:22:17.623Z,100691.38
2023-03-15T15:27:18.829Z,100681.19
2023-03-15T15:32:20.022Z,100688.28
2023-03-15T15:37:21.264Z,100690.19
2023-03-15T15:42:22.472Z,100682.56
2023-03-15T15:47:23.614Z,100677.09
2023-03-15T15:52:24.802Z,100673.66
2023-03-15T15:57:26.452Z,100675.53
2023-03-15T16:02:27.769Z,100674.75
2023-03-15T16:07:29.649Z,100673.44
2023-03-15T16:12:32.708Z,100668.97
2023-03-15T16:17:33.911Z,100677.88
2023-03-15T16:22:35.074Z,100666.91
2023-03-15T16:27:36.272Z,100676.03
2023-03-15T16:32:44.409Z,100672.66
2023-03-15T16:37:46.101Z,100667.38
2023-03-15T16:42:47.359Z,100679.63
2023-03-15T16:47:48.918Z,100677.75
2023-03-15T16:52:50.330Z,100681.91
2023-03-15T16:57:51.669Z,100686.81
2023-03-15T17:02:53.036Z,100691.16
2023-03-15T17:07:54.358Z,100701.50
2023-03-15T17:12:55.551Z,100705.19
2023-03-15T17:17:57.562Z,100705.50
2023-03-15T17:22:59.031Z,100706.34
2023-03-15T17:28:00.398Z,100697.50
2023-03-15T17:33:01.591Z,100713.22
2023-03-15T17:38:02.794Z,100722.94
2023-03-15T17:43:03.971Z,100716.44
2023-03-15T17:48:06.157Z,100727.94
2023-03-15T17:53:07.348Z,100732.22
2023-03-15T17:58:08.570Z,100734.69
2023-03-15T18:03:09.816Z,100728.81
2023-03-15T18:08:11.068Z,100727.13
2023-03-15T18:13:12.234Z,100737.94
2023-03-15T18:18:13.433Z,100740.84
2023-03-15T18:23:14.651Z,100743.84
2023-03-15T18:28:15.801Z,100749.47
2023-03-15T18:33:17.321Z,100756.38
2023-03-15T18:38:18.530Z,100755.72
2023-03-15T18:43:19.827Z,100760.63
2023-03-15T18:48:27.823Z,100757.16
2023-03-15T18:53:35.612Z,100768.00
2023-03-15T18:58:36.802Z,100773.81
2023-03-15T19:03:38.000Z,100768.97
2023-03-15T19:08:39.276Z,100777.13
2023-03-15T19:13:40.719Z,100784.59
2023-03-15T19:18:43.668Z,100779.19
2023-03-15T19:23:44.898Z,100774.53
2023-03-15T19:28:46.104Z,100773.75
2023-03-15T19:33:47.400Z,100771.94
2023-03-15T19:38:48.591Z,100774.53
2023-03-15T19:43:49.845Z,100776.59
2023-03-15T19:48:51.032Z,100784.59
2023-03-15T19:53:52.233Z,100777.50
2023-03-15T19:58:53.479Z,100778.53
2023-03-15T20:03:54.689Z,100779.09
2023-03-15T20:08:55.924Z,100777.59
2023-03-15T20:13:57.121Z,100770.06
2023-03-15T20:18:58.418Z,100781.13
2023-03-15T20:24:00.396Z,100786.00
2023-03-15T20:29:01.678Z,100786.69
2023-03-15T20:34:02.944Z,100802.94
2023-03-15T20:39:05.364Z,100795.28
2023-03-15T20:44:06.620Z,100791.03
2023-03-15T20:49:08.277Z,100793.63
2023-03-15T20:54:09.464Z,100788.44
2023-03-15T20:59:11.995Z,100785.97
2023-03-15T21:04:13.633Z,100792.72
2023-03-15T21:09:14.816Z,100786.88
2023-03-15T21:14:16.190Z,100725.09
2023-03-15T21:19:17.383Z,100778.53
2023-03-15T21:24:18.510Z,100787.34
2023-03-15T21:29:19.687Z,100787.00
2023-03-15T21:34:20.827Z,100777.06
2023-03-15T21:39:22.057Z,100762.22
2023-03-15T21:44:23.205Z,100766.47
2023-03-15T21:49:24.901Z,100766.38
2023-03-15T21:54:26.069Z,100758.91
2023-03-15T21:59:27.586Z,100766.34
2023-03-15T22:04:28.792Z,100762.44
2023-03-15T22:09:30.006Z,100756.09
2023-03-15T22:14:31.251Z,100752.16
2023-03-15T22:19:32.510Z,100754.97
2023-03-15T22:24:34.048Z,100744.84
2023-03-15T22:29:35.360Z,100743.78
2023-03-15T22:34:36.585Z,100738.59
2023-03-15T22:39:37.809Z,100731.53
2023-03-15T22:44:39.043Z,100739.19
2023-03-15T22:49:40.426Z,100743.56
2023-03-15T22:54:44.403Z,100742.66
2023-03-15T22:59:45.573Z,100738.94
2023-03-15T23:04:46.857Z,100742.97
2023-03-15T23:09:48.048Z,100747.69
2023-03-15T23:14:49.703Z,100749.94
2023-03-15T23:19:50.905Z,100741.63
2023-03-15T23:24:52.118Z,100741.72
2023-03-15T23:29:54.871Z,100731.34
2023-03-15T23:34:56.327Z,100744.97
2023-03-15T23:39:57.532Z,100761.06
2023-03-15T23:44:59.577Z,100761.88
2023-03-15T23:50:02.256Z,100765.03
2023-03-15T23:55:03.469Z,100759.84
